createdAt,value
2022-11-28T00:02:20.786Z,9.90
2022-11-28T00:04:51.134Z,8.90
2022-11-28T00:07:18.312Z,11.83
2022-11-28T00:09:45.484Z,13.23
2022-11-28T00:12:12.576Z,12.47
2022-11-28T00:14:39.860Z,9.53
2022-11-28T00:17:08.571Z,14.00
2022-11-28T00:19:35.733Z,15.87
2022-11-28T00:22:02.784Z,11.03
2022-11-28T00:24:29.991Z,9.50
2022-11-28T00:26:57.083Z,11.40
2022-11-28T00:29:24.217Z,12.67
2022-11-28T00:31:51.419Z,9.90
2022-11-28T00:34:19.911Z,12.57
2022-11-28T00:36:47.914Z,13.07
2022-11-28T00:39:16.072Z,11.40
2022-11-28T00:41:43.733Z,11.90
2022-11-28T00:44:11.001Z,14.07
2022-11-28T00:46:38.113Z,21.67
2022-11-28T00:49:05.242Z,12.73
2022-11-28T00:51:34.431Z,10.10
2022-11-28T00:54:02.461Z,10.03
2022-11-28T00:56:30.617Z,9.67
2022-11-28T00:58:59.196Z,10.13
2022-11-28T01:01:27.290Z,12.77
2022-11-28T01:03:55.417Z,12.60
2022-11-28T01:06:23.451Z,8.33
2022-11-28T01:08:52.313Z,12.33
2022-11-28T01:11:19.782Z,10.80
2022-11-28T01:13:46.969Z,11.97
2022-11-28T01:16:14.403Z,11.20
2022-11-28T01:18:41.587Z,13.17
2022-11-28T01:21:09.228Z,11.40
2022-11-28T01:23:36.611Z,13.23
2022-11-28T01:26:05.973Z,9.03
2022-11-28T01:28:33.725Z,13.20
2022-11-28T01:31:03.425Z,11.77
2022-11-28T01:33:30.630Z,11.33
2022-11-28T01:35:58.493Z,13.73
2022-11-28T01:38:26.174Z,10.57
2022-11-28T01:40:53.659Z,20.20
2022-11-28T01:43:22.329Z,12.20
2022-11-28T01:45:49.468Z,13.30
2022-11-28T01:48:18.881Z,12.10
2022-11-28T01:50:46.909Z,10.80
2022-11-28T01:53:14.437Z,13.33
2022-11-28T01:55:43.816Z,11.43
2022-11-28T01:58:12.134Z,13.27
2022-11-28T02:00:40.657Z,16.17
2022-11-28T02:03:10.087Z,14.97
2022-11-28T02:05:37.221Z,14.53
2022-11-28T02:08:04.424Z,12.17
2022-11-28T02:10:37.367Z,13.67
2022-11-28T02:13:12.023Z,15.30
2022-11-28T02:15:47.944Z,10.80
2022-11-28T02:18:23.204Z,12.83
2022-11-28T02:21:06.334Z,11.50
2022-11-28T02:23:41.572Z,12.70
2022-11-28T02:26:22.260Z,11.93
2022-11-28T02:29:02.741Z,13.10
2022-11-28T02:31:39.325Z,12.00
2022-11-28T02:34:10.348Z,13.80
2022-11-28T02:36:42.889Z,18.23
2022-11-28T02:39:12.133Z,12.57
2022-11-28T02:41:43.415Z,14.03
2022-11-28T02:44:12.287Z,13.70
2022-11-28T02:46:44.210Z,13.27
2022-11-28T02:49:16.007Z,21.50
2022-11-28T02:51:44.607Z,13.63
2022-11-28T02:54:12.678Z,18.40
2022-11-28T02:56:39.909Z,16.37
2022-11-28T02:59:22.778Z,12.30
2022-11-28T03:01:49.914Z,13.53
2022-11-28T03:04:19.664Z,14.20
2022-11-28T03:06:53.718Z,15.57
2022-11-28T03:09:31.067Z,17.00
2022-11-28T03:12:04.614Z,19.50
2022-11-28T03:14:41.316Z,14.40
2022-11-28T03:17:13.892Z,19.53
2022-11-28T03:19:43.447Z,14.23
2022-11-28T03:22:13.601Z,14.80
2022-11-28T03:24:43.848Z,16.50
2022-11-28T03:27:14.838Z,13.53
2022-11-28T03:29:44.120Z,16.53
2022-11-28T03:32:13.677Z,15.17
2022-11-28T03:34:42.196Z,14.47
2022-11-28T03:37:12.314Z,13.60
2022-11-28T03:39:40.195Z,13.40
2022-11-28T03:42:10.185Z,15.70
2022-11-28T03:44:40.518Z,14.67
2022-11-28T03:47:08.251Z,16.17
2022-11-28T03:49:37.589Z,12.97
2022-11-28T03:52:05.702Z,15.47
2022-11-28T03:54:36.004Z,15.30
2022-11-28T03:57:08.298Z,14.97
2022-11-28T03:59:36.920Z,16.53
2022-11-28T04:02:06.455Z,15.90
2022-11-28T04:04:37.420Z,20.07
2022-11-28T04:07:08.969Z,14.10
2022-11-28T04:09:43.298Z,13.33
2022-11-28T04:12:15.377Z,13.93
2022-11-28T04:14:45.861Z,15.93
2022-11-28T04:17:14.870Z,12.80
2022-11-28T04:19:43.439Z,14.23
2022-11-28T04:22:13.888Z,17.90
2022-11-28T04:24:44.263Z,17.10
2022-11-28T04:27:13.573Z,13.53
2022-11-28T04:29:42.498Z,12.40
2022-11-28T04:32:10.244Z,14.77
2022-11-28T04:34:38.127Z,14.37
2022-11-28T04:37:09.718Z,18.50
2022-11-28T04:39:38.264Z,20.83
2022-11-28T04:42:10.810Z,17.73
2022-11-28T04:44:40.666Z,13.87
2022-11-28T04:47:08.489Z,20.40
2022-11-28T04:49:35.620Z,13.90
2022-11-28T04:52:05.053Z,19.83
2022-11-28T04:54:35.816Z,15.50
2022-11-28T04:57:04.957Z,15.23
2022-11-28T04:59:33.788Z,17.80
2022-11-28T05:02:03.367Z,16.27
2022-11-28T05:04:30.719Z,15.63
2022-11-28T05:07:01.898Z,14.40
2022-11-28T05:09:29.044Z,14.43
2022-11-28T05:11:56.126Z,19.63
2022-11-28T05:14:23.267Z,14.50
2022-11-28T05:16:51.757Z,16.07
2022-11-28T05:19:19.264Z,16.97
2022-11-28T05:21:46.433Z,17.43
2022-11-28T05:24:13.573Z,15.07
2022-11-28T05:26:40.683Z,16.33
2022-11-28T05:29:07.794Z,18.57
2022-11-28T05:31:34.930Z,18.10
2022-11-28T05:34:03.424Z,15.30
2022-11-28T05:36:30.516Z,15.20
2022-11-28T05:38:57.645Z,13.70
2022-11-28T05:41:25.528Z,14.80
2022-11-28T05:43:52.628Z,14.40
2022-11-28T05:46:20.070Z,14.47
2022-11-28T05:48:47.617Z,16.97
2022-11-28T05:51:16.054Z,15.83
2022-11-28T05:53:43.187Z,19.63
2022-11-28T05:56:11.111Z,15.20
2022-11-28T05:58:38.307Z,24.30
2022-11-28T06:01:12.567Z,19.93
2022-11-28T06:03:39.689Z,19.30
2022-11-28T06:06:10.319Z,16.70
2022-11-28T06:08:38.716Z,14.90
2022-11-28T06:11:06.191Z,17.60
2022-11-28T06:13:33.269Z,19.60
2022-11-28T06:16:00.612Z,15.40
2022-11-28T06:18:27.757Z,15.30
2022-11-28T06:20:54.831Z,17.03
2022-11-28T06:23:21.945Z,17.73
2022-11-28T06:25:50.399Z,13.20
2022-11-28T06:28:17.480Z,15.90
2022-11-28T06:30:44.645Z,16.90
2022-11-28T06:33:11.760Z,12.80
2022-11-28T06:35:38.855Z,16.50
2022-11-28T06:38:10.167Z,13.70
2022-11-28T06:40:40.036Z,13.83
2022-11-28T06:43:08.483Z,16.33
2022-11-28T06:45:35.706Z,19.90
2022-11-28T06:48:02.849Z,14.40
2022-11-28T06:50:29.938Z,18.40
2022-11-28T06:52:57.036Z,14.60
2022-11-28T06:55:24.139Z,14.90
2022-11-28T06:57:51.289Z,15.47
2022-11-28T07:00:20.193Z,20.63
2022-11-28T07:02:47.383Z,19.10
2022-11-28T07:05:14.502Z,18.57
2022-11-28T07:07:53.350Z,11.80
2022-11-28T07:10:21.933Z,18.23
2022-11-28T07:12:53.299Z,14.83
2022-11-28T07:15:21.719Z,15.37
2022-11-28T07:17:48.857Z,15.03
2022-11-28T07:20:16.021Z,17.17
2022-11-28T07:22:43.107Z,22.17
2022-11-28T07:25:10.418Z,15.93
2022-11-28T07:27:37.537Z,15.10
2022-11-28T07:30:05.339Z,12.63
2022-11-28T07:32:33.805Z,14.63
2022-11-28T07:35:00.900Z,15.60
2022-11-28T07:37:28.025Z,14.90
2022-11-28T07:39:55.140Z,14.10
2022-11-28T07:42:22.240Z,16.83
2022-11-28T07:45:03.297Z,12.97
2022-11-28T07:47:30.385Z,17.93
2022-11-28T07:49:58.820Z,14.70
2022-11-28T07:52:25.938Z,19.03
2022-11-28T07:54:53.075Z,15.90
2022-11-28T07:57:20.156Z,16.93
2022-11-28T07:59:47.227Z,16.10
2022-11-28T08:02:14.449Z,16.13
2022-11-28T08:04:48.386Z,13.17
2022-11-28T08:07:19.069Z,10.00
2022-11-28T08:09:46.291Z,14.20
2022-11-28T08:12:13.418Z,15.83
2022-11-28T08:14:41.075Z,17.13
2022-11-28T08:17:08.367Z,13.20
2022-11-28T08:19:39.145Z,12.70
2022-11-28T08:22:06.223Z,17.07
2022-11-28T08:24:34.700Z,14.73
2022-11-28T08:27:01.798Z,20.83
2022-11-28T08:29:28.963Z,17.53
2022-11-28T08:31:56.034Z,17.20
2022-11-28T08:34:23.633Z,13.37
2022-11-28T08:36:50.709Z,22.23
2022-11-28T08:39:25.467Z,21.77
2022-11-28T08:41:54.214Z,18.40
2022-11-28T08:44:21.408Z,15.87
2022-11-28T08:46:48.506Z,18.00
2022-11-28T08:49:15.644Z,19.03
2022-11-28T08:51:42.735Z,16.07
2022-11-28T08:54:09.829Z,23.73
2022-11-28T08:56:36.939Z,18.93
2022-11-28T08:59:05.416Z,13.73
2022-11-28T09:01:32.650Z,17.07
2022-11-28T09:03:59.820Z,17.63
2022-11-28T09:06:26.995Z,18.93
2022-11-28T09:08:54.110Z,15.00
2022-11-28T09:11:22.190Z,13.87
2022-11-28T09:13:49.673Z,14.70
2022-11-28T09:16:18.280Z,17.50
2022-11-28T09:18:45.582Z,18.30
2022-11-28T09:21:13.640Z,15.10
2022-11-28T09:23:41.921Z,14.00
2022-11-28T09:26:09.584Z,12.80
2022-11-28T09:28:36.732Z,14.27
2022-11-28T09:31:04.543Z,16.30
2022-11-28T09:33:33.117Z,10.77
2022-11-28T09:36:00.216Z,14.23
2022-11-28T09:38:27.350Z,16.50
2022-11-28T09:40:54.460Z,15.33
2022-11-28T09:43:25.875Z,13.97
2022-11-28T09:45:53.290Z,16.60
2022-11-28T09:48:26.114Z,12.60
2022-11-28T09:50:55.673Z,16.60
2022-11-28T09:53:24.939Z,13.23
2022-11-28T09:55:55.013Z,14.90
2022-11-28T09:58:25.448Z,21.73
2022-11-28T10:00:55.890Z,13.57
2022-11-28T10:03:31.788Z,22.17
2022-11-28T10:06:04.548Z,14.27
2022-11-28T10:08:36.103Z,13.60
2022-11-28T10:11:04.794Z,14.73
2022-11-28T10:14:06.116Z,11.63
2022-11-28T10:16:28.011Z,14.90
2022-11-28T10:18:56.975Z,15.90
2022-11-28T10:21:28.864Z,16.33
2022-11-28T10:23:58.810Z,14.90
2022-11-28T10:26:29.690Z,15.77
2022-11-28T10:28:58.371Z,14.30
2022-11-28T10:31:30.315Z,15.57
2022-11-28T10:34:00.147Z,14.50
2022-11-28T10:36:31.524Z,12.90
2022-11-28T10:39:00.822Z,15.67
2022-11-28T10:41:31.467Z,14.73
2022-11-28T10:43:59.815Z,17.13
2022-11-28T10:46:32.681Z,12.30
2022-11-28T10:49:04.521Z,17.43
2022-11-28T10:51:38.976Z,15.47
2022-11-28T10:54:16.485Z,14.43
2022-11-28T10:56:47.869Z,14.80
2022-11-28T10:59:18.258Z,17.10
2022-11-28T11:01:49.983Z,19.53
2022-11-28T11:04:18.577Z,16.00
2022-11-28T11:07:08.450Z,15.40
2022-11-28T11:09:38.488Z,16.07
2022-11-28T11:12:08.268Z,22.07
2022-11-28T11:14:36.521Z,17.70
2022-11-28T11:17:03.729Z,15.60
2022-11-28T11:19:31.574Z,13.70
2022-11-28T11:22:01.088Z,16.13
2022-11-28T11:24:28.548Z,18.30
2022-11-28T11:27:02.944Z,16.07
2022-11-28T11:29:30.898Z,17.93
2022-11-28T11:31:58.359Z,15.23
2022-11-28T11:34:25.451Z,18.30
2022-11-28T11:37:12.581Z,24.27
2022-11-28T11:39:46.984Z,14.17
2022-11-28T11:42:19.207Z,21.03
2022-11-28T11:44:46.306Z,17.33
2022-11-28T11:47:13.461Z,20.77
2022-11-28T11:49:42.388Z,18.37
2022-11-28T11:52:15.569Z,20.90
2022-11-28T11:54:53.692Z,20.70
2022-11-28T11:57:36.902Z,20.10
2022-11-28T12:00:06.037Z,16.07
2022-11-28T12:02:41.684Z,23.10
2022-11-28T12:05:11.936Z,22.80
2022-11-28T12:07:40.126Z,21.80
2022-11-28T12:10:11.948Z,20.73
2022-11-28T12:12:39.699Z,22.23
2022-11-28T12:15:12.701Z,24.90
2022-11-28T12:17:55.778Z,20.87
2022-11-28T12:20:38.024Z,25.53
2022-11-28T12:23:17.131Z,22.30
2022-11-28T12:25:47.890Z,26.00
2022-11-28T12:28:20.403Z,22.00
2022-11-28T12:30:54.955Z,17.70
2022-11-28T12:33:27.637Z,30.23
2022-11-28T12:36:03.386Z,18.20
2022-11-28T12:38:35.161Z,24.93
2022-11-28T12:41:09.233Z,17.83
2022-11-28T12:43:41.079Z,26.70
2022-11-28T12:46:13.227Z,16.73
2022-11-28T12:48:51.638Z,18.30
2022-11-28T12:51:26.108Z,25.23
2022-11-28T12:54:06.331Z,20.03
2022-11-28T12:56:39.792Z,19.27
2022-11-28T12:59:12.384Z,20.10
2022-11-28T13:01:45.968Z,24.03
2022-11-28T13:04:19.762Z,23.63
2022-11-28T13:06:52.829Z,21.47
2022-11-28T13:09:27.839Z,19.07
2022-11-28T13:12:01.942Z,27.00
2022-11-28T13:14:32.111Z,18.20
2022-11-28T13:17:02.704Z,17.50
2022-11-28T13:19:33.726Z,21.13
2022-11-28T13:22:05.972Z,21.93
2022-11-28T13:24:37.217Z,22.50
2022-11-28T13:27:09.525Z,24.43
2022-11-28T13:29:38.666Z,18.50
2022-11-28T13:32:11.114Z,27.60
2022-11-28T13:34:38.466Z,18.70
2022-11-28T13:39:59.858Z,21.83
2022-11-28T13:45:26.584Z,19.13
2022-11-28T13:47:58.509Z,20.93
2022-11-28T13:50:35.989Z,20.60
2022-11-28T13:53:04.424Z,26.67
2022-11-28T13:55:38.629Z,24.47
2022-11-28T13:58:16.898Z,20.37
2022-11-28T14:00:44.448Z,27.33
2022-11-28T14:03:18.498Z,22.93
2022-11-28T14:05:46.060Z,24.73
2022-11-28T14:08:26.441Z,19.80
2022-11-28T14:10:59.884Z,20.50
2022-11-28T14:13:37.487Z,21.57
2022-11-28T14:16:09.123Z,29.33
2022-11-28T14:18:58.486Z,20.87
2022-11-28T14:21:31.158Z,20.63
2022-11-28T14:24:01.748Z,20.10
2022-11-28T14:26:31.513Z,22.83
2022-11-28T14:29:00.313Z,23.63
2022-11-28T14:31:30.393Z,22.13
2022-11-28T14:33:58.119Z,24.43
2022-11-28T14:36:27.240Z,29.00
2022-11-28T14:39:01.187Z,23.50
2022-11-28T14:41:29.436Z,21.60
2022-11-28T14:44:16.572Z,21.37
2022-11-28T14:46:58.761Z,24.00
2022-11-28T14:49:27.624Z,21.10
2022-11-28T14:52:30.672Z,27.57
2022-11-28T14:54:55.366Z,30.00
2022-11-28T14:57:24.786Z,24.20
2022-11-28T14:59:54.007Z,29.63
2022-11-28T15:02:28.906Z,22.03
2022-11-28T15:05:03.270Z,21.97
2022-11-28T15:07:35.246Z,25.70
2022-11-28T15:10:07.726Z,24.80
2022-11-28T15:12:40.014Z,27.10
2022-11-28T15:15:12.266Z,21.07
2022-11-28T15:17:40.617Z,25.97
2022-11-28T15:20:15.316Z,22.53
2022-11-28T15:22:43.837Z,27.20
2022-11-28T15:25:18.545Z,34.47
2022-11-28T15:27:46.162Z,26.20
2022-11-28T15:30:15.738Z,26.67
2022-11-28T15:32:43.240Z,27.07
2022-11-28T15:35:13.207Z,31.33
2022-11-28T15:37:46.429Z,32.43
2022-11-28T15:40:17.730Z,27.37
2022-11-28T15:42:48.196Z,28.73
2022-11-28T15:45:19.207Z,26.20
2022-11-28T15:47:46.776Z,35.40
2022-11-28T15:50:16.768Z,33.83
2022-11-28T15:52:52.886Z,27.60
2022-11-28T15:55:20.017Z,31.97
2022-11-28T15:57:48.602Z,34.07
2022-11-28T16:00:16.750Z,32.13
2022-11-28T16:02:44.419Z,28.37
2022-11-28T16:05:14.327Z,29.50
2022-11-28T16:07:44.167Z,32.50
2022-11-28T16:10:20.862Z,29.20
2022-11-28T16:12:48.272Z,33.20
2022-11-28T16:15:17.319Z,31.40
2022-11-28T16:17:44.574Z,31.40
2022-11-28T16:20:20.952Z,30.40
2022-11-28T16:22:49.455Z,34.37
2022-11-28T16:25:21.607Z,26.83
2022-11-28T16:27:48.802Z,33.17
2022-11-28T16:30:26.380Z,34.47
2022-11-28T16:32:54.151Z,30.17
2022-11-28T16:35:25.863Z,30.10
2022-11-28T16:38:03.460Z,30.80
2022-11-28T16:40:30.650Z,30.00
2022-11-28T16:42:57.760Z,30.10
2022-11-28T16:45:26.066Z,27.23
2022-11-28T16:47:54.449Z,35.03
2022-11-28T16:50:22.450Z,22.80
2022-11-28T16:52:50.557Z,33.87
2022-11-28T16:55:36.332Z,26.20
2022-11-28T16:58:10.650Z,32.13
2022-11-28T17:00:38.970Z,23.60
2022-11-28T17:03:10.284Z,42.27
2022-11-28T17:05:39.885Z,30.40
2022-11-28T17:08:07.991Z,31.13
2022-11-28T17:10:35.092Z,25.00
2022-11-28T17:13:02.170Z,35.00
2022-11-28T17:15:30.635Z,35.07
2022-11-28T17:17:57.732Z,27.67
2022-11-28T17:20:24.878Z,23.90
2022-11-28T17:22:52.050Z,32.63
2022-11-28T17:25:20.202Z,32.80
2022-11-28T17:27:47.759Z,31.87
2022-11-28T17:30:15.613Z,27.70
2022-11-28T17:32:44.096Z,26.83
2022-11-28T17:35:13.157Z,33.07
2022-11-28T17:37:40.283Z,31.30
2022-11-28T17:40:08.083Z,29.17
2022-11-28T17:42:35.211Z,26.63
2022-11-28T17:45:02.332Z,33.10
2022-11-28T17:47:29.452Z,29.10
2022-11-28T17:49:57.886Z,33.20
2022-11-28T17:52:25.015Z,31.60
2022-11-28T17:54:52.427Z,36.20
2022-11-28T17:57:19.571Z,36.33
2022-11-28T17:59:46.702Z,36.93
2022-11-28T18:02:13.901Z,35.43
2022-11-28T18:04:41.360Z,34.97
2022-11-28T18:07:09.843Z,35.80
2022-11-28T18:09:36.928Z,41.80
2022-11-28T18:12:04.354Z,39.60
2022-11-28T18:14:36.631Z,34.77
2022-11-28T18:17:06.521Z,31.97
2022-11-28T18:19:33.722Z,34.10
2022-11-28T18:22:01.760Z,33.57
2022-11-28T18:24:30.360Z,38.97
2022-11-28T18:26:57.501Z,30.00
2022-11-28T18:29:24.946Z,34.53
2022-11-28T18:31:53.621Z,32.67
2022-11-28T18:34:20.821Z,29.77
2022-11-28T18:36:48.952Z,32.87
2022-11-28T18:39:16.039Z,27.80
2022-11-28T18:41:46.219Z,35.60
2022-11-28T18:44:13.340Z,38.87
2022-11-28T18:46:40.520Z,34.10
2022-11-28T18:49:07.935Z,30.63
2022-11-28T18:51:35.586Z,33.63
2022-11-28T18:54:03.124Z,35.10
2022-11-28T18:56:30.557Z,28.10
2022-11-28T18:58:59.215Z,31.50
2022-11-28T19:01:27.296Z,42.03
2022-11-28T19:03:56.017Z,35.47
2022-11-28T19:06:24.048Z,31.80
2022-11-28T19:08:53.408Z,34.90
2022-11-28T19:11:20.902Z,35.43
2022-11-28T19:13:48.618Z,32.67
2022-11-28T19:16:21.434Z,31.83
2022-11-28T19:18:48.985Z,30.77
2022-11-28T19:21:17.540Z,37.43
2022-11-28T19:23:45.392Z,32.37
2022-11-28T19:26:14.177Z,38.60
2022-11-28T19:28:41.853Z,29.07
2022-11-28T19:31:09.383Z,37.83
2022-11-28T19:33:38.116Z,40.77
2022-11-28T19:36:06.481Z,32.23
2022-11-28T19:38:33.692Z,39.00
2022-11-28T19:41:05.695Z,31.93
2022-11-28T19:43:32.825Z,34.57
2022-11-28T19:46:00.106Z,33.20
2022-11-28T19:48:29.041Z,44.13
2022-11-28T19:50:58.064Z,36.13
2022-11-28T19:53:25.775Z,39.77
2022-11-28T19:55:52.904Z,36.50
2022-11-28T19:58:20.020Z,33.20
2022-11-28T20:00:47.295Z,45.80
2022-11-28T20:03:14.415Z,40.63
2022-11-28T20:05:42.261Z,44.30
2022-11-28T20:08:10.975Z,45.30
2022-11-28T20:10:38.857Z,37.47
2022-11-28T20:13:06.920Z,36.70
2022-11-28T20:15:35.716Z,44.47
2022-11-28T20:18:04.227Z,41.37
2022-11-28T20:20:33.375Z,36.00
2022-11-28T20:23:00.976Z,40.83
2022-11-28T20:25:29.510Z,38.13
2022-11-28T20:27:56.915Z,32.47
2022-11-28T20:30:24.039Z,29.80
2022-11-28T20:32:51.124Z,33.97
2022-11-28T20:35:18.224Z,35.53
2022-11-28T20:37:45.380Z,32.87
2022-11-28T20:40:13.070Z,29.80
2022-11-28T20:42:41.509Z,38.23
2022-11-28T20:45:08.859Z,37.03
2022-11-28T20:47:35.984Z,38.60
2022-11-28T20:50:03.066Z,31.73
2022-11-28T20:52:30.179Z,39.63
2022-11-28T20:54:57.239Z,41.47
2022-11-28T20:57:24.332Z,37.37
2022-11-28T20:59:52.756Z,33.40
2022-11-28T21:02:19.897Z,33.27
2022-11-28T21:04:47.018Z,37.30
2022-11-28T21:07:14.162Z,40.73
2022-11-28T21:09:41.610Z,35.10
2022-11-28T21:12:08.843Z,35.70
2022-11-28T21:14:35.943Z,31.40
2022-11-28T21:17:04.377Z,33.17
2022-11-28T21:19:31.466Z,34.70
2022-11-28T21:21:58.556Z,39.83
2022-11-28T21:24:25.666Z,42.93
2022-11-28T21:26:54.455Z,48.83
2022-11-28T21:29:22.321Z,50.47
2022-11-28T21:31:49.541Z,40.23
2022-11-28T21:34:18.091Z,37.20
2022-11-28T21:36:45.295Z,38.07
2022-11-28T21:39:13.501Z,36.23
2022-11-28T21:41:40.683Z,34.63
2022-11-28T21:44:08.220Z,30.90
2022-11-28T21:46:35.333Z,30.53
2022-11-28T21:49:02.416Z,38.43
2022-11-28T21:51:30.861Z,37.47
2022-11-28T21:53:57.978Z,36.87
2022-11-28T21:56:25.269Z,35.53
2022-11-28T21:58:53.569Z,37.77
2022-11-28T22:01:20.835Z,36.43
2022-11-28T22:03:48.666Z,39.47
2022-11-28T22:06:16.574Z,38.13
2022-11-28T22:08:45.385Z,42.63
2022-11-28T22:11:13.026Z,39.63
2022-11-28T22:13:40.764Z,33.93
2022-11-28T22:16:09.724Z,52.77
2022-11-28T22:18:37.605Z,33.23
2022-11-28T22:21:22.327Z,36.70
2022-11-28T22:23:54.350Z,37.43
2022-11-28T22:26:21.483Z,32.80
2022-11-28T22:28:53.617Z,37.30
2022-11-28T22:31:21.239Z,32.27
2022-11-28T22:33:49.577Z,33.23
2022-11-28T22:36:17.630Z,32.03
2022-11-28T22:38:45.175Z,38.23
2022-11-28T22:41:15.007Z,36.60
2022-11-28T22:43:42.704Z,41.20
2022-11-28T22:46:10.497Z,41.10
2022-11-28T22:48:38.147Z,38.83
2022-11-28T22:51:08.778Z,39.20
2022-11-28T22:53:35.915Z,38.17
2022-11-28T22:56:03.611Z,31.73
2022-11-28T22:58:39.358Z,39.17
2022-11-28T23:01:10.048Z,34.07
2022-11-28T23:03:37.741Z,39.90
2022-11-28T23:06:05.586Z,34.57
2022-11-28T23:08:32.719Z,39.70
2022-11-28T23:10:59.907Z,36.90
2022-11-28T23:13:27.160Z,35.57
2022-11-28T23:15:55.637Z,37.70
2022-11-28T23:18:22.741Z,32.60
2022-11-28T23:20:49.892Z,32.63
2022-11-28T23:23:17.813Z,37.00
2022-11-28T23:25:44.913Z,35.00
2022-11-28T23:28:12.170Z,34.03
2022-11-28T23:30:39.899Z,34.57
2022-11-28T23:33:08.614Z,36.23
2022-11-28T23:35:35.722Z,36.83
2022-11-28T23:38:02.851Z,36.23
2022-11-28T23:40:29.939Z,35.70
2022-11-28T23:42:57.048Z,34.43
2022-11-28T23:45:24.135Z,38.47
2022-11-28T23:47:51.254Z,34.47
2022-11-28T23:50:19.687Z,36.53
2022-11-28T23:52:46.842Z,37.20
2022-11-28T23:55:13.925Z,35.60
2022-11-28T23:57:41.024Z,37.73
